sensor_id;sensor_type;location;lat;lon;timestamp;P1;durP1;ratioP1;P2;durP2;ratioP2
55758;SDS011;41678;52.126;20.664;2023-03-14T00:01:35;11.95;;;4.75;;
55758;SDS011;41678;52.126;20.664;2023-03-14T00:06:54;14.77;;;4.97;;
55758;SDS011;41678;52.126;20.664;2023-03-14T00:12:13;19.63;;;5.32;;
55758;SDS011;41678;52.126;20.664;2023-03-14T00:17:34;12.53;;;4.27;;
55758;SDS011;41678;52.126;20.664;2023-03-14T00:22:55;8.85;;;4.18;;
55758;SDS011;41678;52.126;20.664;2023-03-14T00:28:15;13.40;;;4.60;;
55758;SDS011;41678;52.126;20.664;2023-03-14T00:33:34;8.15;;;3.30;;
55758;SDS011;41678;52.126;20.664;2023-03-14T00:38:56;11.85;;;4.47;;
55758;SDS011;41678;52.126;20.664;2023-03-14T00:44:16;11.65;;;3.83;;
55758;SDS011;41678;52.126;20.664;2023-03-14T00:49:36;18.55;;;4.55;;
55758;SDS011;41678;52.126;20.664;2023-03-14T00:54:56;13.93;;;4.90;;
55758;SDS011;41678;52.126;20.664;2023-03-14T01:00:15;12.18;;;4.45;;
55758;SDS011;41678;52.126;20.664;2023-03-14T01:05:35;10.50;;;3.75;;
55758;SDS011;41678;52.126;20.664;2023-03-14T01:10:55;17.08;;;5.22;;
55758;SDS011;41678;52.126;20.664;2023-03-14T01:16:15;12.13;;;4.53;;
55758;SDS011;41678;52.126;20.664;2023-03-14T01:21:35;11.77;;;4.57;;
55758;SDS011;41678;52.126;20.664;2023-03-14T01:26:55;12.15;;;4.35;;
55758;SDS011;41678;52.126;20.664;2023-03-14T01:32:17;20.77;;;4.32;;
55758;SDS011;41678;52.126;20.664;2023-03-14T01:37:37;12.95;;;4.93;;
55758;SDS011;41678;52.126;20.664;2023-03-14T01:48:25;14.15;;;4.13;;
55758;SDS011;41678;52.126;20.664;2023-03-14T01:53:50;18.25;;;3.90;;
55758;SDS011;41678;52.126;20.664;2023-03-14T01:59:13;15.40;;;4.60;;
55758;SDS011;41678;52.126;20.664;2023-03-14T02:04:34;14.45;;;4.35;;
55758;SDS011;41678;52.126;20.664;2023-03-14T02:09:55;11.65;;;4.22;;
55758;SDS011;41678;52.126;20.664;2023-03-14T02:15:19;12.32;;;4.60;;
55758;SDS011;41678;52.126;20.664;2023-03-14T02:21:00;16.27;;;4.82;;
55758;SDS011;41678;52.126;20.664;2023-03-14T02:26:27;10.88;;;4.50;;
55758;SDS011;41678;52.126;20.664;2023-03-14T02:31:53;8.75;;;3.45;;
55758;SDS011;41678;52.126;20.664;2023-03-14T02:37:13;11.65;;;4.03;;
55758;SDS011;41678;52.126;20.664;2023-03-14T02:42:37;9.68;;;3.97;;
55758;SDS011;41678;52.126;20.664;2023-03-14T02:47:59;14.48;;;3.72;;
55758;SDS011;41678;52.126;20.664;2023-03-14T02:53:32;10.05;;;3.63;;
55758;SDS011;41678;52.126;20.664;2023-03-14T02:59:01;10.90;;;3.88;;
55758;SDS011;41678;52.126;20.664;2023-03-14T03:04:29;10.75;;;3.10;;
55758;SDS011;41678;52.126;20.664;2023-03-14T03:09:48;9.45;;;3.28;;
55758;SDS011;41678;52.126;20.664;2023-03-14T03:15:09;11.68;;;4.25;;
55758;SDS011;41678;52.126;20.664;2023-03-14T03:20:30;11.25;;;3.28;;
55758;SDS011;41678;52.126;20.664;2023-03-14T03:25:50;12.93;;;3.45;;
55758;SDS011;41678;52.126;20.664;2023-03-14T03:31:10;10.60;;;3.40;;
55758;SDS011;41678;52.126;20.664;2023-03-14T03:36:32;13.70;;;4.15;;
55758;SDS011;41678;52.126;20.664;2023-03-14T03:41:52;7.78;;;2.83;;
55758;SDS011;41678;52.126;20.664;2023-03-14T03:47:13;7.90;;;3.10;;
55758;SDS011;41678;52.126;20.664;2023-03-14T03:52:33;9.52;;;3.20;;
55758;SDS011;41678;52.126;20.664;2023-03-14T03:57:52;11.57;;;3.60;;
55758;SDS011;41678;52.126;20.664;2023-03-14T04:03:12;13.05;;;3.30;;
55758;SDS011;41678;52.126;20.664;2023-03-14T04:08:32;9.15;;;3.13;;
55758;SDS011;41678;52.126;20.664;2023-03-14T04:13:53;9.48;;;3.15;;
55758;SDS011;41678;52.126;20.664;2023-03-14T04:19:12;8.05;;;3.03;;
55758;SDS011;41678;52.126;20.664;2023-03-14T04:24:32;8.93;;;2.78;;
55758;SDS011;41678;52.126;20.664;2023-03-14T04:29:52;8.80;;;2.58;;
55758;SDS011;41678;52.126;20.664;2023-03-14T04:35:21;8.98;;;2.75;;
55758;SDS011;41678;52.126;20.664;2023-03-14T04:40:42;12.18;;;2.42;;
55758;SDS011;41678;52.126;20.664;2023-03-14T04:51:23;7.07;;;2.80;;
55758;SDS011;41678;52.126;20.664;2023-03-14T04:56:47;7.43;;;2.97;;
55758;SDS011;41678;52.126;20.664;2023-03-14T05:02:07;9.63;;;2.63;;
55758;SDS011;41678;52.126;20.664;2023-03-14T05:07:40;14.10;;;3.53;;
55758;SDS011;41678;52.126;20.664;2023-03-14T05:13:16;10.00;;;2.55;;
55758;SDS011;41678;52.126;20.664;2023-03-14T05:18:56;9.15;;;2.67;;
55758;SDS011;41678;52.126;20.664;2023-03-14T05:24:51;10.13;;;2.40;;
55758;SDS011;41678;52.126;20.664;2023-03-14T05:30:28;7.28;;;2.20;;
55758;SDS011;41678;52.126;20.664;2023-03-14T05:36:13;10.98;;;2.67;;
55758;SDS011;41678;52.126;20.664;2023-03-14T05:41:52;10.43;;;3.35;;
55758;SDS011;41678;52.126;20.664;2023-03-14T05:47:15;7.47;;;2.72;;
55758;SDS011;41678;52.126;20.664;2023-03-14T05:52:55;12.20;;;2.75;;
55758;SDS011;41678;52.126;20.664;2023-03-14T05:58:44;8.00;;;2.70;;
55758;SDS011;41678;52.126;20.664;2023-03-14T06:04:14;6.13;;;2.13;;
55758;SDS011;41678;52.126;20.664;2023-03-14T06:09:35;7.68;;;2.20;;
55758;SDS011;41678;52.126;20.664;2023-03-14T06:14:55;6.28;;;2.28;;
55758;SDS011;41678;52.126;20.664;2023-03-14T06:20:15;10.50;;;2.47;;
55758;SDS011;41678;52.126;20.664;2023-03-14T06:25:35;9.30;;;2.53;;
55758;SDS011;41678;52.126;20.664;2023-03-14T06:30:56;8.90;;;3.10;;
55758;SDS011;41678;52.126;20.664;2023-03-14T06:36:16;9.63;;;2.63;;
55758;SDS011;41678;52.126;20.664;2023-03-14T06:41:38;7.88;;;2.38;;
55758;SDS011;41678;52.126;20.664;2023-03-14T06:46:58;9.43;;;2.92;;
55758;SDS011;41678;52.126;20.664;2023-03-14T06:52:18;15.80;;;2.60;;
55758;SDS011;41678;52.126;20.664;2023-03-14T06:57:38;6.43;;;2.25;;
55758;SDS011;41678;52.126;20.664;2023-03-14T07:03:00;7.60;;;2.20;;
55758;SDS011;41678;52.126;20.664;2023-03-14T07:08:24;4.80;;;1.92;;
55758;SDS011;41678;52.126;20.664;2023-03-14T07:13:44;10.55;;;2.83;;
55758;SDS011;41678;52.126;20.664;2023-03-14T07:19:04;6.75;;;2.50;;
55758;SDS011;41678;52.126;20.664;2023-03-14T07:24:24;17.40;;;3.67;;
55758;SDS011;41678;52.126;20.664;2023-03-14T07:29:44;10.77;;;2.95;;
55758;SDS011;41678;52.126;20.664;2023-03-14T07:35:03;19.55;;;3.45;;
55758;SDS011;41678;52.126;20.664;2023-03-14T07:40:25;9.77;;;2.58;;
55758;SDS011;41678;52.126;20.664;2023-03-14T07:45:46;7.32;;;2.17;;
55758;SDS011;41678;52.126;20.664;2023-03-14T07:51:06;8.57;;;2.85;;
55758;SDS011;41678;52.126;20.664;2023-03-14T07:56:25;13.98;;;2.85;;
55758;SDS011;41678;52.126;20.664;2023-03-14T08:01:45;10.93;;;2.72;;
55758;SDS011;41678;52.126;20.664;2023-03-14T08:07:04;14.48;;;3.40;;
55758;SDS011;41678;52.126;20.664;2023-03-14T08:12:24;8.68;;;2.92;;
55758;SDS011;41678;52.126;20.664;2023-03-14T08:17:43;12.38;;;3.13;;
55758;SDS011;41678;52.126;20.664;2023-03-14T08:23:02;4.47;;;1.83;;
55758;SDS011;41678;52.126;20.664;2023-03-14T08:28:22;12.45;;;2.45;;
55758;SDS011;41678;52.126;20.664;2023-03-14T08:33:42;12.65;;;2.83;;
55758;SDS011;41678;52.126;20.664;2023-03-14T08:39:02;13.18;;;3.20;;
55758;SDS011;41678;52.126;20.664;2023-03-14T08:44:23;7.33;;;2.63;;
55758;SDS011;41678;52.126;20.664;2023-03-14T08:49:42;10.98;;;2.55;;
55758;SDS011;41678;52.126;20.664;2023-03-14T08:55:02;12.73;;;3.40;;
55758;SDS011;41678;52.126;20.664;2023-03-14T09:00:22;5.47;;;2.50;;
55758;SDS011;41678;52.126;20.664;2023-03-14T09:05:41;13.63;;;3.33;;
55758;SDS011;41678;52.126;20.664;2023-03-14T09:11:01;12.52;;;2.83;;
55758;SDS011;41678;52.126;20.664;2023-03-14T09:16:20;7.40;;;3.10;;
55758;SDS011;41678;52.126;20.664;2023-03-14T09:21:40;12.10;;;2.90;;
55758;SDS011;41678;52.126;20.664;2023-03-14T09:26:59;6.72;;;2.33;;
55758;SDS011;41678;52.126;20.664;2023-03-14T09:32:19;14.60;;;3.35;;
55758;SDS011;41678;52.126;20.664;2023-03-14T09:37:39;7.13;;;1.85;;
55758;SDS011;41678;52.126;20.664;2023-03-14T09:42:59;13.88;;;3.03;;
55758;SDS011;41678;52.126;20.664;2023-03-14T09:48:22;14.60;;;3.38;;
55758;SDS011;41678;52.126;20.664;2023-03-14T09:53:47;8.48;;;2.65;;
55758;SDS011;41678;52.126;20.664;2023-03-14T09:59:08;9.02;;;2.97;;
55758;SDS011;41678;52.126;20.664;2023-03-14T10:04:32;10.10;;;2.88;;
55758;SDS011;41678;52.126;20.664;2023-03-14T10:09:52;12.35;;;2.85;;
55758;SDS011;41678;52.126;20.664;2023-03-14T10:15:13;7.20;;;2.67;;
55758;SDS011;41678;52.126;20.664;2023-03-14T10:20:38;10.85;;;2.20;;
55758;SDS011;41678;52.126;20.664;2023-03-14T10:26:03;13.25;;;2.85;;
55758;SDS011;41678;52.126;20.664;2023-03-14T10:31:25;9.23;;;2.58;;
55758;SDS011;41678;52.126;20.664;2023-03-14T10:36:45;7.03;;;2.38;;
55758;SDS011;41678;52.126;20.664;2023-03-14T10:42:09;9.32;;;2.58;;
55758;SDS011;41678;52.126;20.664;2023-03-14T10:47:51;14.80;;;3.25;;
55758;SDS011;41678;52.126;20.664;2023-03-14T10:53:11;7.22;;;2.40;;
55758;SDS011;41678;52.126;20.664;2023-03-14T10:58:32;10.27;;;3.13;;
55758;SDS011;41678;52.126;20.664;2023-03-14T11:04:21;13.00;;;3.40;;
55758;SDS011;41678;52.126;20.664;2023-03-14T11:26:46;9.77;;;3.63;;
55758;SDS011;41678;52.126;20.664;2023-03-14T11:32:28;17.55;;;3.65;;
55758;SDS011;41678;52.126;20.664;2023-03-14T11:37:52;14.10;;;3.42;;
55758;SDS011;41678;52.126;20.664;2023-03-14T11:43:15;13.82;;;3.63;;
55758;SDS011;41678;52.126;20.664;2023-03-14T11:48:45;11.35;;;3.35;;
55758;SDS011;41678;52.126;20.664;2023-03-14T12:00:18;12.70;;;3.67;;
55758;SDS011;41678;52.126;20.664;2023-03-14T12:11:32;10.63;;;3.35;;
55758;SDS011;41678;52.126;20.664;2023-03-14T12:17:04;11.43;;;3.80;;
55758;SDS011;41678;52.126;20.664;2023-03-14T12:22:44;17.25;;;3.75;;
55758;SDS011;41678;52.126;20.664;2023-03-14T12:28:31;25.17;;;4.20;;
55758;SDS011;41678;52.126;20.664;2023-03-14T12:34:00;12.55;;;3.47;;
55758;SDS011;41678;52.126;20.664;2023-03-14T12:50:56;14.20;;;4.03;;
55758;SDS011;41678;52.126;20.664;2023-03-14T13:13:24;14.50;;;4.43;;
55758;SDS011;41678;52.126;20.664;2023-03-14T13:18:46;12.88;;;4.25;;
55758;SDS011;41678;52.126;20.664;2023-03-14T13:24:20;12.88;;;5.15;;
55758;SDS011;41678;52.126;20.664;2023-03-14T13:29:42;12.43;;;4.28;;
55758;SDS011;41678;52.126;20.664;2023-03-14T13:35:01;26.13;;;4.85;;
55758;SDS011;41678;52.126;20.664;2023-03-14T13:40:33;12.70;;;4.18;;
55758;SDS011;41678;52.126;20.664;2023-03-14T13:46:01;11.73;;;4.45;;
55758;SDS011;41678;52.126;20.664;2023-03-14T13:51:24;11.05;;;4.57;;
55758;SDS011;41678;52.126;20.664;2023-03-14T13:56:46;8.73;;;3.80;;
55758;SDS011;41678;52.126;20.664;2023-03-14T14:02:12;14.35;;;5.18;;
55758;SDS011;41678;52.126;20.664;2023-03-14T14:07:34;10.35;;;3.13;;
55758;SDS011;41678;52.126;20.664;2023-03-14T14:18:22;13.90;;;3.97;;
55758;SDS011;41678;52.126;20.664;2023-03-14T14:23:45;12.73;;;3.90;;
55758;SDS011;41678;52.126;20.664;2023-03-14T14:29:05;14.85;;;4.53;;
55758;SDS011;41678;52.126;20.664;2023-03-14T14:34:25;12.85;;;4.20;;
55758;SDS011;41678;52.126;20.664;2023-03-14T14:39:46;16.13;;;5.13;;
55758;SDS011;41678;52.126;20.664;2023-03-14T14:45:12;11.48;;;4.28;;
55758;SDS011;41678;52.126;20.664;2023-03-14T14:50:44;12.70;;;5.03;;
55758;SDS011;41678;52.126;20.664;2023-03-14T14:56:16;17.08;;;7.45;;
55758;SDS011;41678;52.126;20.664;2023-03-14T15:01:44;19.10;;;6.65;;
55758;SDS011;41678;52.126;20.664;2023-03-14T15:07:07;15.45;;;6.53;;
55758;SDS011;41678;52.126;20.664;2023-03-14T15:12:27;16.50;;;5.47;;
55758;SDS011;41678;52.126;20.664;2023-03-14T15:17:47;16.10;;;5.85;;
55758;SDS011;41678;52.126;20.664;2023-03-14T15:23:10;18.70;;;5.68;;
55758;SDS011;41678;52.126;20.664;2023-03-14T15:28:31;18.40;;;4.28;;
55758;SDS011;41678;52.126;20.664;2023-03-14T15:33:51;10.88;;;4.10;;
55758;SDS011;41678;52.126;20.664;2023-03-14T15:39:10;13.65;;;4.75;;
55758;SDS011;41678;52.126;20.664;2023-03-14T15:44:31;12.63;;;5.70;;
55758;SDS011;41678;52.126;20.664;2023-03-14T15:49:50;15.57;;;5.65;;
55758;SDS011;41678;52.126;20.664;2023-03-14T15:55:11;15.95;;;5.88;;
55758;SDS011;41678;52.126;20.664;2023-03-14T16:00:31;14.02;;;5.68;;
55758;SDS011;41678;52.126;20.664;2023-03-14T16:05:51;12.73;;;4.80;;
55758;SDS011;41678;52.126;20.664;2023-03-14T16:11:11;17.13;;;5.78;;
55758;SDS011;41678;52.126;20.664;2023-03-14T16:16:33;11.88;;;5.60;;
55758;SDS011;41678;52.126;20.664;2023-03-14T16:21:52;14.30;;;6.20;;
55758;SDS011;41678;52.126;20.664;2023-03-14T16:27:12;24.52;;;10.23;;
55758;SDS011;41678;52.126;20.664;2023-03-14T16:32:32;17.10;;;6.57;;
55758;SDS011;41678;52.126;20.664;2023-03-14T16:37:52;14.63;;;6.50;;
55758;SDS011;41678;52.126;20.664;2023-03-14T16:43:12;13.75;;;5.40;;
55758;SDS011;41678;52.126;20.664;2023-03-14T16:48:31;18.13;;;6.00;;
55758;SDS011;41678;52.126;20.664;2023-03-14T16:53:51;16.52;;;6.57;;
55758;SDS011;41678;52.126;20.664;2023-03-14T16:59:11;12.20;;;4.90;;
55758;SDS011;41678;52.126;20.664;2023-03-14T17:04:30;15.38;;;5.22;;
55758;SDS011;41678;52.126;20.664;2023-03-14T17:09:50;18.25;;;5.45;;
55758;SDS011;41678;52.126;20.664;2023-03-14T17:15:10;11.65;;;5.13;;
55758;SDS011;41678;52.126;20.664;2023-03-14T17:20:31;13.37;;;5.37;;
55758;SDS011;41678;52.126;20.664;2023-03-14T17:25:51;13.35;;;5.43;;
55758;SDS011;41678;52.126;20.664;2023-03-14T17:31:12;25.92;;;8.02;;
55758;SDS011;41678;52.126;20.664;2023-03-14T17:36:36;13.15;;;5.43;;
55758;SDS011;41678;52.126;20.664;2023-03-14T17:41:55;13.90;;;5.32;;
55758;SDS011;41678;52.126;20.664;2023-03-14T17:47:15;10.77;;;4.82;;
55758;SDS011;41678;52.126;20.664;2023-03-14T17:52:35;13.05;;;4.95;;
55758;SDS011;41678;52.126;20.664;2023-03-14T17:57:55;13.40;;;5.93;;
55758;SDS011;41678;52.126;20.664;2023-03-14T18:03:14;12.13;;;4.88;;
55758;SDS011;41678;52.126;20.664;2023-03-14T18:08:34;15.77;;;5.47;;
55758;SDS011;41678;52.126;20.664;2023-03-14T18:13:54;11.47;;;3.87;;
55758;SDS011;41678;52.126;20.664;2023-03-14T18:19:14;19.98;;;7.15;;
55758;SDS011;41678;52.126;20.664;2023-03-14T18:24:34;14.63;;;4.85;;
55758;SDS011;41678;52.126;20.664;2023-03-14T18:29:54;12.85;;;5.15;;
55758;SDS011;41678;52.126;20.664;2023-03-14T18:35:13;14.98;;;4.95;;
55758;SDS011;41678;52.126;20.664;2023-03-14T18:40:33;11.50;;;4.63;;
55758;SDS011;41678;52.126;20.664;2023-03-14T18:45:52;11.10;;;3.92;;
55758;SDS011;41678;52.126;20.664;2023-03-14T18:51:13;14.20;;;4.05;;
55758;SDS011;41678;52.126;20.664;2023-03-14T18:56:33;10.82;;;4.72;;
55758;SDS011;41678;52.126;20.664;2023-03-14T19:01:53;13.55;;;4.57;;
55758;SDS011;41678;52.126;20.664;2023-03-14T19:07:13;11.50;;;3.88;;
55758;SDS011;41678;52.126;20.664;2023-03-14T19:12:33;14.80;;;5.38;;
55758;SDS011;41678;52.126;20.664;2023-03-14T19:17:53;13.90;;;5.00;;
55758;SDS011;41678;52.126;20.664;2023-03-14T19:23:12;20.42;;;6.38;;
55758;SDS011;41678;52.126;20.664;2023-03-14T19:28:35;17.25;;;6.47;;
55758;SDS011;41678;52.126;20.664;2023-03-14T19:33:54;21.25;;;6.93;;
55758;SDS011;41678;52.126;20.664;2023-03-14T19:39:14;18.55;;;5.93;;
55758;SDS011;41678;52.126;20.664;2023-03-14T19:44:33;18.38;;;5.78;;
55758;SDS011;41678;52.126;20.664;2023-03-14T19:49:53;15.90;;;4.60;;
55758;SDS011;41678;52.126;20.664;2023-03-14T19:55:12;24.55;;;9.50;;
55758;SDS011;41678;52.126;20.664;2023-03-14T20:00:32;19.17;;;5.95;;
55758;SDS011;41678;52.126;20.664;2023-03-14T20:05:51;23.00;;;8.05;;
55758;SDS011;41678;52.126;20.664;2023-03-14T20:11:12;18.10;;;6.78;;
55758;SDS011;41678;52.126;20.664;2023-03-14T20:16:31;14.70;;;5.85;;
55758;SDS011;41678;52.126;20.664;2023-03-14T20:21:54;18.08;;;8.15;;
55758;SDS011;41678;52.126;20.664;2023-03-14T20:27:14;15.27;;;6.18;;
55758;SDS011;41678;52.126;20.664;2023-03-14T20:32:33;17.65;;;7.40;;
55758;SDS011;41678;52.126;20.664;2023-03-14T20:37:53;13.65;;;4.88;;
55758;SDS011;41678;52.126;20.664;2023-03-14T20:43:16;22.25;;;8.60;;
55758;SDS011;41678;52.126;20.664;2023-03-14T20:48:36;19.33;;;8.00;;
55758;SDS011;41678;52.126;20.664;2023-03-14T20:53:57;16.88;;;6.60;;
55758;SDS011;41678;52.126;20.664;2023-03-14T20:59:17;14.45;;;6.30;;
55758;SDS011;41678;52.126;20.664;2023-03-14T21:04:36;19.02;;;6.18;;
55758;SDS011;41678;52.126;20.664;2023-03-14T21:09:56;14.52;;;6.30;;
55758;SDS011;41678;52.126;20.664;2023-03-14T21:15:16;14.25;;;6.10;;
55758;SDS011;41678;52.126;20.664;2023-03-14T21:20:35;15.20;;;5.90;;
55758;SDS011;41678;52.126;20.664;2023-03-14T21:25:56;18.98;;;6.50;;
55758;SDS011;41678;52.126;20.664;2023-03-14T21:31:16;12.85;;;5.68;;
55758;SDS011;41678;52.126;20.664;2023-03-14T21:36:36;11.48;;;5.03;;
55758;SDS011;41678;52.126;20.664;2023-03-14T21:41:55;11.15;;;4.75;;
55758;SDS011;41678;52.126;20.664;2023-03-14T21:47:16;10.45;;;4.50;;
55758;SDS011;41678;52.126;20.664;2023-03-14T21:52:37;14.98;;;5.35;;
55758;SDS011;41678;52.126;20.664;2023-03-14T21:57:57;13.18;;;5.10;;
55758;SDS011;41678;52.126;20.664;2023-03-14T22:03:17;14.77;;;5.35;;
55758;SDS011;41678;52.126;20.664;2023-03-14T22:08:41;15.20;;;5.35;;
55758;SDS011;41678;52.126;20.664;2023-03-14T22:14:01;15.07;;;5.75;;
55758;SDS011;41678;52.126;20.664;2023-03-14T22:19:20;11.38;;;4.60;;
55758;SDS011;41678;52.126;20.664;2023-03-14T22:24:40;14.57;;;5.00;;
55758;SDS011;41678;52.126;20.664;2023-03-14T22:29:59;12.27;;;5.90;;
55758;SDS011;41678;52.126;20.664;2023-03-14T22:35:19;10.65;;;5.05;;
55758;SDS011;41678;52.126;20.664;2023-03-14T22:40:38;16.17;;;5.28;;
55758;SDS011;41678;52.126;20.664;2023-03-14T22:46:01;15.48;;;6.05;;
55758;SDS011;41678;52.126;20.664;2023-03-14T22:51:23;13.85;;;5.50;;
55758;SDS011;41678;52.126;20.664;2023-03-14T22:56:43;14.55;;;6.22;;
55758;SDS011;41678;52.126;20.664;2023-03-14T23:02:02;14.50;;;5.40;;
55758;SDS011;41678;52.126;20.664;2023-03-14T23:07:22;16.80;;;5.43;;
55758;SDS011;41678;52.126;20.664;2023-03-14T23:12:41;16.13;;;5.13;;
55758;SDS011;41678;52.126;20.664;2023-03-14T23:23:22;14.95;;;5.22;;
55758;SDS011;41678;52.126;20.664;2023-03-14T23:28:43;11.25;;;4.88;;
55758;SDS011;41678;52.126;20.664;2023-03-14T23:34:03;11.02;;;4.60;;
55758;SDS011;41678;52.126;20.664;2023-03-14T23:39:23;10.90;;;4.75;;
55758;SDS011;41678;52.126;20.664;2023-03-14T23:44:43;25.38;;;5.45;;
55758;SDS011;41678;52.126;20.664;2023-03-14T23:50:03;11.48;;;5.07;;
55758;SDS011;41678;52.126;20.664;2023-03-14T23:55:23;12.10;;;5.25;;
